Detall de PIREP

Printer-friendly versionPDF version

[2008/10/31 19:16:00]
Flight IATA:CT1001
Pilot Number:026
Company ICAO:CAT
Aircraft Type:B75F/E
PAX:0
Departing Airport: LFLL
Destination Airport: DAAG
Alternate Airport:DAOO
Online: VATSIM
Route:ROMAM UY23 KURIR UY16 MTL UZ16 AVN UT161 DIVKO UM154 SOSUR UM989 BALEN UN736 LUNOR UM989 OTARO UA24 ZEM
Flight Level:FL330
No Slew and time accel
No pause
Crash detect
Detect pilot in Cockpit between each 30 and 45 minutes
19:16 Zero fuel Weight: 228881 Lbs, Fuel Weight: 27896 Lbs
19:16 VATSIM:LFLL 311800Z 14005KT 9999 FEW050 BKN083 09/08 Q1001 NOSIG
19:16 VATSIM:DAAG 311730Z 17002KT 9999 FEW026 16/10 Q1005
19:17 VOICE CATALONIAN / CROSS MEDITERRANEAN SEA
19:20 Parking Brakes off
19:35 Take-off
19:35 Take off Weight: 254763 Lbs
19:35 Wind: 126º @ 004 Knots Heading: 174º
19:35 POS N45º 43´ 31´´ E005º 05´ 18´´
19:35 Gear Up: 189 Knots
19:35 Flaps:2 at 189 Knots
19:37 Flaps
:1 at 213 Knots
19:37 Flaps:0 at 227 Knots
19:50 Wind:125º@033 Knots Heading: 178º Ground Speed: 441 Knots Altitude 28356 ft
20:05 Wind:098º@024 Knots Heading: 159º Ground Speed: 451 Knots Altitude 31676 ft
20:08 TOC
20:08 Fuel Weight: 18180 Lb
20:20 Wind:154º@017 Knots Heading: 200º Ground Speed: 455 Knots Altitude 32700 ft
20:35 Wind:186º@029 Knots Heading: 201º Ground Speed: 439 Knots Altitude 32687 ft
20:40 TOD
20:40 Fuel Weight: 13443 Lb
20:50 Wind:176º@008 Knots Heading: 216º Ground Speed: 368 Knots Altitude 17208 ft
21:05 Wind:131º@004 Knots Heading: 077º Ground Speed: 197 Knots Altitude 3802 ft
21:06 Flaps:1 at 182 Knots
21:06 Gear Down: 186 Knots
21:06 Flaps:2 at 186 Knots
21:06 Flaps:3 at 187 Knots
21:07 Flaps:4 at 171 Knots
21:07 Flaps:5 at 177 Knots
21:08 Gear Up: 177 Knots
21:08 Flaps:4 at 177 Knots
21:08 Flaps:3 at 179 Knots
21:08 Flaps:2 at
188 Knots
21:09 Flaps:1 at 176 Knots
21:13 Flaps:0 at 198 Knots
21:15 Gear Down: 228 Knots
21:17 Gear Up: 193 Knots
21:20 Wind:136º@004 Knots Heading: 247º Ground Speed: 203 Knots Altitude 3897 ft
21:25 Gear Down: 183 Knots
21:25 Flaps:1 at 181 Knots
21:26 Flaps:2 at 181 Knots
21:26 Flaps:3 at 180 Knots
21:28 Flaps:4 at 175 Knots
21:28 Flaps:5 at 172 Knots
21:29 Flaps:6 at 161 Knots
21:29 TouchDown:Rate -831 ft/min Speed: 158 Knots
21:29 VATSIM:DAAG 311930Z 10003KT 9999 FEW026 12/09 Q1005
21:29 Land
21:29 Wind:132º@002 Knots
21:29 Heading: 092º
21:29 Flight Duration: 01:54
21:29 Landing Weight: 236397 Lbs
21:29 POS N36º 41´ 29´´ E003º 11´ 07´´
21:33 Parking brakes on
21:33 Block to Block Duration: 02:13
21:33 Final Fuel: 7063 Lbls
21:33 Spent Fuel: 20833 Lbls
21:33 Flight Length: 678 NM
21:33 TOD Land Length: 216 NM

Exportar CSV

Powered by Drupal - Modified by Danger4k